sensor_id;sensor_type;location;lat;lon;timestamp;P1;durP1;ratioP1;P2;durP2;ratioP2
58896;SDS011;44677;52.378;10.400;2022-12-07T00:00:50;27.60;;;14.90;;
58896;SDS011;44677;52.378;10.400;2022-12-07T00:03:15;23.50;;;15.80;;
58896;SDS011;44677;52.378;10.400;2022-12-07T00:05:41;23.50;;;15.40;;
58896;SDS011;44677;52.378;10.400;2022-12-07T00:08:06;22.30;;;14.90;;
58896;SDS011;44677;52.378;10.400;2022-12-07T00:10:33;25.40;;;15.70;;
58896;SDS011;44677;52.378;10.400;2022-12-07T00:12:59;23.60;;;14.30;;
58896;SDS011;44677;52.378;10.400;2022-12-07T00:15:24;24.80;;;15.70;;
58896;SDS011;44677;52.378;10.400;2022-12-07T00:17:49;22.10;;;14.70;;
58896;SDS011;44677;52.378;10.400;2022-12-07T00:20:15;23.50;;;15.70;;
58896;SDS011;44677;52.378;10.400;2022-12-07T00:22:40;25.60;;;15.90;;
58896;SDS011;44677;52.378;10.400;2022-12-07T00:25:06;25.20;;;15.70;;
58896;SDS011;44677;52.378;10.400;2022-12-07T00:27:31;28.80;;;15.90;;
58896;SDS011;44677;52.378;10.400;2022-12-07T00:29:57;25.00;;;15.70;;
58896;SDS011;44677;52.378;10.400;2022-12-07T00:32:22;26.00;;;15.60;;
58896;SDS011;44677;52.378;10.400;2022-12-07T00:34:47;27.20;;;15.70;;
58896;SDS011;44677;52.378;10.400;2022-12-07T00:37:13;32.60;;;16.50;;
58896;SDS011;44677;52.378;10.400;2022-12-07T00:39:38;31.00;;;18.10;;
58896;SDS011;44677;52.378;10.400;2022-12-07T00:42:03;27.60;;;17.20;;
58896;SDS011;44677;52.378;10.400;2022-12-07T00:44:29;27.40;;;17.80;;
58896;SDS011;44677;52.378;10.400;2022-12-07T00:46:54;27.60;;;17.40;;
58896;SDS011;44677;52.378;10.400;2022-12-07T00:49:21;33.30;;;18.70;;
58896;SDS011;44677;52.378;10.400;2022-12-07T00:51:47;31.70;;;17.60;;
58896;SDS011;44677;52.378;10.400;2022-12-07T00:54:14;34.00;;;19.40;;
58896;SDS011;44677;52.378;10.400;2022-12-07T00:56:39;30.80;;;18.00;;
58896;SDS011;44677;52.378;10.400;2022-12-07T00:59:05;34.30;;;18.20;;
58896;SDS011;44677;52.378;10.400;2022-12-07T01:01:31;27.80;;;17.10;;
58896;SDS011;44677;52.378;10.400;2022-12-07T01:03:58;29.60;;;17.20;;
58896;SDS011;44677;52.378;10.400;2022-12-07T01:06:26;31.40;;;16.90;;
58896;SDS011;44677;52.378;10.400;2022-12-07T01:08:52;31.60;;;18.20;;
58896;SDS011;44677;52.378;10.400;2022-12-07T01:11:19;28.20;;;18.00;;
58896;SDS011;44677;52.378;10.400;2022-12-07T01:13:46;31.60;;;18.80;;
58896;SDS011;44677;52.378;10.400;2022-12-07T01:16:13;32.90;;;18.60;;
58896;SDS011;44677;52.378;10.400;2022-12-07T01:18:40;30.90;;;18.10;;
58896;SDS011;44677;52.378;10.400;2022-12-07T01:21:09;31.70;;;19.00;;
58896;SDS011;44677;52.378;10.400;2022-12-07T01:23:37;34.90;;;19.20;;
58896;SDS011;44677;52.378;10.400;2022-12-07T01:26:04;35.80;;;19.80;;
58896;SDS011;44677;52.378;10.400;2022-12-07T01:28:32;35.70;;;19.30;;
58896;SDS011;44677;52.378;10.400;2022-12-07T01:31:08;39.30;;;20.40;;
58896;SDS011;44677;52.378;10.400;2022-12-07T01:33:37;34.90;;;18.30;;
58896;SDS011;44677;52.378;10.400;2022-12-07T01:36:03;35.20;;;19.00;;
58896;SDS011;44677;52.378;10.400;2022-12-07T01:38:33;36.10;;;20.10;;
58896;SDS011;44677;52.378;10.400;2022-12-07T01:41:00;31.90;;;18.70;;
58896;SDS011;44677;52.378;10.400;2022-12-07T01:43:27;32.10;;;18.20;;
58896;SDS011;44677;52.378;10.400;2022-12-07T01:45:54;34.50;;;19.50;;
58896;SDS011;44677;52.378;10.400;2022-12-07T01:48:22;32.80;;;19.40;;
58896;SDS011;44677;52.378;10.400;2022-12-07T01:50:50;34.00;;;20.10;;
58896;SDS011;44677;52.378;10.400;2022-12-07T01:53:19;33.70;;;19.60;;
58896;SDS011;44677;52.378;10.400;2022-12-07T01:55:47;31.60;;;20.30;;
58896;SDS011;44677;52.378;10.400;2022-12-07T01:58:14;33.40;;;19.40;;
58896;SDS011;44677;52.378;10.400;2022-12-07T02:00:41;35.10;;;19.00;;
58896;SDS011;44677;52.378;10.400;2022-12-07T02:05:32;29.30;;;19.60;;
58896;SDS011;44677;52.378;10.400;2022-12-07T02:07:59;32.90;;;19.60;;
58896;SDS011;44677;52.378;10.400;2022-12-07T02:10:25;33.40;;;19.80;;
58896;SDS011;44677;52.378;10.400;2022-12-07T02:12:54;31.90;;;19.20;;
58896;SDS011;44677;52.378;10.400;2022-12-07T02:15:22;31.70;;;18.40;;
58896;SDS011;44677;52.378;10.400;2022-12-07T02:23:39;31.80;;;18.80;;
58896;SDS011;44677;52.378;10.400;2022-12-07T02:29:11;27.60;;;17.40;;
58896;SDS011;44677;52.378;10.400;2022-12-07T02:31:43;27.30;;;17.80;;
58896;SDS011;44677;52.378;10.400;2022-12-07T02:34:15;30.20;;;19.10;;
58896;SDS011;44677;52.378;10.400;2022-12-07T02:36:46;31.60;;;19.20;;
58896;SDS011;44677;52.378;10.400;2022-12-07T02:39:23;30.40;;;19.70;;
58896;SDS011;44677;52.378;10.400;2022-12-07T02:41:58;29.40;;;17.90;;
58896;SDS011;44677;52.378;10.400;2022-12-07T02:44:28;28.90;;;18.70;;
58896;SDS011;44677;52.378;10.400;2022-12-07T02:46:59;27.80;;;18.30;;
58896;SDS011;44677;52.378;10.400;2022-12-07T02:49:27;28.20;;;18.30;;
58896;SDS011;44677;52.378;10.400;2022-12-07T02:51:53;27.70;;;18.30;;
58896;SDS011;44677;52.378;10.400;2022-12-07T02:54:19;31.70;;;19.10;;
58896;SDS011;44677;52.378;10.400;2022-12-07T03:02:25;32.50;;;18.90;;
58896;SDS011;44677;52.378;10.400;2022-12-07T03:05:12;27.20;;;18.40;;
58896;SDS011;44677;52.378;10.400;2022-12-07T03:10:54;30.80;;;19.10;;
58896;SDS011;44677;52.378;10.400;2022-12-07T03:18:56;25.10;;;17.40;;
58896;SDS011;44677;52.378;10.400;2022-12-07T03:21:27;26.00;;;16.90;;
58896;SDS011;44677;52.378;10.400;2022-12-07T03:23:58;26.80;;;18.00;;
58896;SDS011;44677;52.378;10.400;2022-12-07T03:26:30;23.50;;;15.70;;
58896;SDS011;44677;52.378;10.400;2022-12-07T03:28:59;26.50;;;17.20;;
58896;SDS011;44677;52.378;10.400;2022-12-07T03:31:31;26.70;;;15.90;;
58896;SDS011;44677;52.378;10.400;2022-12-07T03:33:59;26.10;;;15.60;;
58896;SDS011;44677;52.378;10.400;2022-12-07T03:36:37;23.50;;;15.10;;
58896;SDS011;44677;52.378;10.400;2022-12-07T03:41:48;20.90;;;12.60;;
58896;SDS011;44677;52.378;10.400;2022-12-07T03:44:14;21.40;;;14.40;;
58896;SDS011;44677;52.378;10.400;2022-12-07T03:46:58;21.30;;;13.20;;
58896;SDS011;44677;52.378;10.400;2022-12-07T03:52:22;19.60;;;12.60;;
58896;SDS011;44677;52.378;10.400;2022-12-07T03:57:18;20.90;;;12.30;;
58896;SDS011;44677;52.378;10.400;2022-12-07T03:59:45;19.20;;;13.10;;
58896;SDS011;44677;52.378;10.400;2022-12-07T04:02:11;20.70;;;13.00;;
58896;SDS011;44677;52.378;10.400;2022-12-07T04:07:03;19.50;;;10.90;;
58896;SDS011;44677;52.378;10.400;2022-12-07T04:09:28;19.60;;;13.00;;
58896;SDS011;44677;52.378;10.400;2022-12-07T04:11:54;23.10;;;13.00;;
58896;SDS011;44677;52.378;10.400;2022-12-07T04:14:19;19.20;;;12.80;;
58896;SDS011;44677;52.378;10.400;2022-12-07T04:16:45;21.20;;;13.20;;
58896;SDS011;44677;52.378;10.400;2022-12-07T04:21:37;23.10;;;12.20;;
58896;SDS011;44677;52.378;10.400;2022-12-07T04:24:03;18.70;;;12.20;;
58896;SDS011;44677;52.378;10.400;2022-12-07T04:26:29;19.90;;;11.30;;
58896;SDS011;44677;52.378;10.400;2022-12-07T04:28:54;19.80;;;11.80;;
58896;SDS011;44677;52.378;10.400;2022-12-07T04:31:19;17.40;;;11.40;;
58896;SDS011;44677;52.378;10.400;2022-12-07T04:33:45;19.50;;;11.00;;
58896;SDS011;44677;52.378;10.400;2022-12-07T04:36:10;13.90;;;10.00;;
58896;SDS011;44677;52.378;10.400;2022-12-07T04:38:36;14.40;;;9.90;;
58896;SDS011;44677;52.378;10.400;2022-12-07T04:41:08;15.90;;;9.80;;
58896;SDS011;44677;52.378;10.400;2022-12-07T04:43:34;18.10;;;9.80;;
58896;SDS011;44677;52.378;10.400;2022-12-07T04:46:00;17.20;;;9.50;;
58896;SDS011;44677;52.378;10.400;2022-12-07T04:48:25;13.30;;;9.60;;
58896;SDS011;44677;52.378;10.400;2022-12-07T04:50:51;13.10;;;9.50;;
58896;SDS011;44677;52.378;10.400;2022-12-07T04:53:16;13.70;;;9.40;;
58896;SDS011;44677;52.378;10.400;2022-12-07T04:55:42;18.00;;;9.30;;
58896;SDS011;44677;52.378;10.400;2022-12-07T04:58:07;16.90;;;8.50;;
58896;SDS011;44677;52.378;10.400;2022-12-07T05:00:32;16.40;;;8.30;;
58896;SDS011;44677;52.378;10.400;2022-12-07T05:02:58;12.20;;;8.20;;
58896;SDS011;44677;52.378;10.400;2022-12-07T05:05:23;14.60;;;8.60;;
58896;SDS011;44677;52.378;10.400;2022-12-07T05:07:49;12.30;;;8.30;;
58896;SDS011;44677;52.378;10.400;2022-12-07T05:10:15;12.90;;;8.10;;
58896;SDS011;44677;52.378;10.400;2022-12-07T05:12:40;13.60;;;8.20;;
58896;SDS011;44677;52.378;10.400;2022-12-07T05:15:06;12.70;;;8.10;;
58896;SDS011;44677;52.378;10.400;2022-12-07T05:17:31;11.80;;;8.40;;
58896;SDS011;44677;52.378;10.400;2022-12-07T05:19:56;10.80;;;7.50;;
58896;SDS011;44677;52.378;10.400;2022-12-07T05:22:22;14.20;;;9.00;;
58896;SDS011;44677;52.378;10.400;2022-12-07T05:24:47;12.80;;;9.00;;
58896;SDS011;44677;52.378;10.400;2022-12-07T05:27:12;11.10;;;7.40;;
58896;SDS011;44677;52.378;10.400;2022-12-07T05:29:38;12.90;;;8.10;;
58896;SDS011;44677;52.378;10.400;2022-12-07T05:32:03;11.60;;;8.00;;
58896;SDS011;44677;52.378;10.400;2022-12-07T05:34:29;12.90;;;7.50;;
58896;SDS011;44677;52.378;10.400;2022-12-07T05:36:54;10.00;;;7.20;;
58896;SDS011;44677;52.378;10.400;2022-12-07T05:39:19;10.00;;;6.90;;
58896;SDS011;44677;52.378;10.400;2022-12-07T05:41:45;11.60;;;7.60;;
58896;SDS011;44677;52.378;10.400;2022-12-07T05:44:29;13.20;;;8.00;;
58896;SDS011;44677;52.378;10.400;2022-12-07T05:46:54;14.00;;;7.80;;
58896;SDS011;44677;52.378;10.400;2022-12-07T05:49:20;15.50;;;8.70;;
58896;SDS011;44677;52.378;10.400;2022-12-07T05:51:45;14.30;;;7.90;;
58896;SDS011;44677;52.378;10.400;2022-12-07T05:54:10;11.20;;;8.20;;
58896;SDS011;44677;52.378;10.400;2022-12-07T05:56:36;14.10;;;7.20;;
58896;SDS011;44677;52.378;10.400;2022-12-07T05:59:01;12.20;;;8.00;;
58896;SDS011;44677;52.378;10.400;2022-12-07T06:01:54;11.90;;;7.10;;
58896;SDS011;44677;52.378;10.400;2022-12-07T06:04:32;13.10;;;8.10;;
58896;SDS011;44677;52.378;10.400;2022-12-07T06:07:01;11.20;;;7.20;;
58896;SDS011;44677;52.378;10.400;2022-12-07T06:09:27;13.50;;;7.30;;
58896;SDS011;44677;52.378;10.400;2022-12-07T06:11:53;11.10;;;6.70;;
58896;SDS011;44677;52.378;10.400;2022-12-07T06:14:37;8.70;;;5.30;;
58896;SDS011;44677;52.378;10.400;2022-12-07T06:17:03;7.30;;;5.10;;
58896;SDS011;44677;52.378;10.400;2022-12-07T06:19:28;6.40;;;4.70;;
58896;SDS011;44677;52.378;10.400;2022-12-07T06:21:54;7.60;;;3.80;;
58896;SDS011;44677;52.378;10.400;2022-12-07T06:24:19;5.40;;;3.60;;
58896;SDS011;44677;52.378;10.400;2022-12-07T06:26:45;8.40;;;3.90;;
58896;SDS011;44677;52.378;10.400;2022-12-07T06:29:11;6.10;;;3.90;;
58896;SDS011;44677;52.378;10.400;2022-12-07T06:31:37;6.10;;;3.60;;
58896;SDS011;44677;52.378;10.400;2022-12-07T06:34:03;5.40;;;3.70;;
58896;SDS011;44677;52.378;10.400;2022-12-07T06:36:30;7.00;;;4.90;;
58896;SDS011;44677;52.378;10.400;2022-12-07T06:38:56;6.40;;;4.80;;
58896;SDS011;44677;52.378;10.400;2022-12-07T06:41:21;6.80;;;5.70;;
58896;SDS011;44677;52.378;10.400;2022-12-07T06:43:47;12.50;;;6.70;;
58896;SDS011;44677;52.378;10.400;2022-12-07T06:46:13;10.20;;;6.90;;
58896;SDS011;44677;52.378;10.400;2022-12-07T06:48:39;11.90;;;7.20;;
58896;SDS011;44677;52.378;10.400;2022-12-07T06:51:05;12.50;;;7.30;;
58896;SDS011;44677;52.378;10.400;2022-12-07T06:53:31;11.70;;;7.20;;
58896;SDS011;44677;52.378;10.400;2022-12-07T06:55:56;8.40;;;6.80;;
58896;SDS011;44677;52.378;10.400;2022-12-07T06:58:22;11.20;;;7.70;;
58896;SDS011;44677;52.378;10.400;2022-12-07T07:00:47;10.10;;;7.40;;
58896;SDS011;44677;52.378;10.400;2022-12-07T07:03:14;11.90;;;8.90;;
58896;SDS011;44677;52.378;10.400;2022-12-07T07:05:40;13.60;;;8.30;;
58896;SDS011;44677;52.378;10.400;2022-12-07T07:08:06;14.40;;;8.90;;
58896;SDS011;44677;52.378;10.400;2022-12-07T07:10:32;16.00;;;9.40;;
58896;SDS011;44677;52.378;10.400;2022-12-07T07:12:58;15.20;;;8.60;;
58896;SDS011;44677;52.378;10.400;2022-12-07T07:15:23;12.30;;;7.90;;
58896;SDS011;44677;52.378;10.400;2022-12-07T07:17:49;11.10;;;6.70;;
58896;SDS011;44677;52.378;10.400;2022-12-07T07:20:14;13.00;;;7.30;;
58896;SDS011;44677;52.378;10.400;2022-12-07T07:22:40;11.60;;;7.20;;
58896;SDS011;44677;52.378;10.400;2022-12-07T07:25:05;10.00;;;6.90;;
58896;SDS011;44677;52.378;10.400;2022-12-07T07:27:30;12.50;;;7.30;;
58896;SDS011;44677;52.378;10.400;2022-12-07T07:29:56;14.20;;;8.70;;
58896;SDS011;44677;52.378;10.400;2022-12-07T07:32:21;11.10;;;7.30;;
58896;SDS011;44677;52.378;10.400;2022-12-07T07:34:47;12.50;;;7.70;;
58896;SDS011;44677;52.378;10.400;2022-12-07T07:37:13;9.80;;;5.80;;
58896;SDS011;44677;52.378;10.400;2022-12-07T07:39:39;9.90;;;7.10;;
58896;SDS011;44677;52.378;10.400;2022-12-07T07:42:04;9.70;;;6.80;;
58896;SDS011;44677;52.378;10.400;2022-12-07T07:44:31;9.60;;;7.10;;
58896;SDS011;44677;52.378;10.400;2022-12-07T07:46:57;10.20;;;7.40;;
58896;SDS011;44677;52.378;10.400;2022-12-07T07:49:22;14.70;;;7.50;;
58896;SDS011;44677;52.378;10.400;2022-12-07T07:51:47;12.30;;;7.80;;
58896;SDS011;44677;52.378;10.400;2022-12-07T07:54:13;10.40;;;7.50;;
58896;SDS011;44677;52.378;10.400;2022-12-07T07:56:38;14.40;;;7.40;;
58896;SDS011;44677;52.378;10.400;2022-12-07T07:59:03;11.70;;;7.10;;
58896;SDS011;44677;52.378;10.400;2022-12-07T08:01:29;13.40;;;9.10;;
58896;SDS011;44677;52.378;10.400;2022-12-07T08:03:54;11.90;;;7.30;;
58896;SDS011;44677;52.378;10.400;2022-12-07T08:06:19;8.80;;;6.70;;
58896;SDS011;44677;52.378;10.400;2022-12-07T08:08:45;9.10;;;6.30;;
58896;SDS011;44677;52.378;10.400;2022-12-07T08:11:10;11.20;;;6.30;;
58896;SDS011;44677;52.378;10.400;2022-12-07T08:13:36;11.20;;;6.10;;
58896;SDS011;44677;52.378;10.400;2022-12-07T08:16:03;8.70;;;6.10;;
58896;SDS011;44677;52.378;10.400;2022-12-07T08:18:30;14.70;;;7.00;;
58896;SDS011;44677;52.378;10.400;2022-12-07T08:20:59;7.70;;;5.30;;
58896;SDS011;44677;52.378;10.400;2022-12-07T08:23:26;7.40;;;5.90;;
58896;SDS011;44677;52.378;10.400;2022-12-07T08:25:51;10.10;;;6.20;;
58896;SDS011;44677;52.378;10.400;2022-12-07T08:28:17;16.40;;;6.60;;
58896;SDS011;44677;52.378;10.400;2022-12-07T08:30:42;9.60;;;5.40;;
58896;SDS011;44677;52.378;10.400;2022-12-07T08:33:08;9.50;;;5.90;;
58896;SDS011;44677;52.378;10.400;2022-12-07T08:35:34;11.20;;;6.00;;
58896;SDS011;44677;52.378;10.400;2022-12-07T08:37:59;11.70;;;5.60;;
58896;SDS011;44677;52.378;10.400;2022-12-07T08:40:27;7.00;;;4.90;;
58896;SDS011;44677;52.378;10.400;2022-12-07T08:42:53;10.10;;;5.70;;
58896;SDS011;44677;52.378;10.400;2022-12-07T08:45:19;10.70;;;5.40;;
58896;SDS011;44677;52.378;10.400;2022-12-07T08:47:50;7.50;;;5.10;;
58896;SDS011;44677;52.378;10.400;2022-12-07T08:50:18;6.80;;;4.70;;
58896;SDS011;44677;52.378;10.400;2022-12-07T08:52:44;9.10;;;4.80;;
58896;SDS011;44677;52.378;10.400;2022-12-07T08:55:18;9.30;;;4.50;;
58896;SDS011;44677;52.378;10.400;2022-12-07T08:57:44;6.40;;;4.10;;
58896;SDS011;44677;52.378;10.400;2022-12-07T09:00:10;7.20;;;4.40;;
58896;SDS011;44677;52.378;10.400;2022-12-07T09:02:36;9.20;;;3.70;;
58896;SDS011;44677;52.378;10.400;2022-12-07T09:05:02;6.80;;;4.60;;
58896;SDS011;44677;52.378;10.400;2022-12-07T09:07:28;5.00;;;3.20;;
58896;SDS011;44677;52.378;10.400;2022-12-07T09:09:55;8.90;;;4.30;;
58896;SDS011;44677;52.378;10.400;2022-12-07T09:12:21;10.30;;;4.80;;
58896;SDS011;44677;52.378;10.400;2022-12-07T09:14:46;8.20;;;5.20;;
58896;SDS011;44677;52.378;10.400;2022-12-07T09:17:12;6.50;;;4.60;;
58896;SDS011;44677;52.378;10.400;2022-12-07T09:19:38;6.00;;;3.90;;
58896;SDS011;44677;52.378;10.400;2022-12-07T09:22:04;7.20;;;4.60;;
58896;SDS011;44677;52.378;10.400;2022-12-07T09:24:30;6.40;;;4.40;;
58896;SDS011;44677;52.378;10.400;2022-12-07T09:26:56;8.50;;;4.40;;
58896;SDS011;44677;52.378;10.400;2022-12-07T09:29:22;4.50;;;3.50;;
58896;SDS011;44677;52.378;10.400;2022-12-07T09:31:48;5.60;;;3.70;;
58896;SDS011;44677;52.378;10.400;2022-12-07T09:34:13;9.30;;;4.00;;
58896;SDS011;44677;52.378;10.400;2022-12-07T09:36:39;7.20;;;4.20;;
58896;SDS011;44677;52.378;10.400;2022-12-07T09:39:04;7.60;;;4.00;;
58896;SDS011;44677;52.378;10.400;2022-12-07T09:41:30;7.30;;;3.80;;
58896;SDS011;44677;52.378;10.400;2022-12-07T09:44:04;6.70;;;4.50;;
58896;SDS011;44677;52.378;10.400;2022-12-07T09:46:34;6.90;;;4.40;;
58896;SDS011;44677;52.378;10.400;2022-12-07T09:49:01;5.40;;;4.00;;
58896;SDS011;44677;52.378;10.400;2022-12-07T09:51:27;8.70;;;4.20;;
58896;SDS011;44677;52.378;10.400;2022-12-07T09:53:53;10.40;;;4.40;;
58896;SDS011;44677;52.378;10.400;2022-12-07T09:58:45;7.30;;;3.60;;
58896;SDS011;44677;52.378;10.400;2022-12-07T10:01:16;7.00;;;3.40;;
58896;SDS011;44677;52.378;10.400;2022-12-07T10:03:50;6.10;;;2.90;;
58896;SDS011;44677;52.378;10.400;2022-12-07T10:06:17;5.80;;;2.90;;
58896;SDS011;44677;52.378;10.400;2022-12-07T10:08:43;3.30;;;2.60;;
58896;SDS011;44677;52.378;10.400;2022-12-07T10:11:08;7.20;;;3.00;;
58896;SDS011;44677;52.378;10.400;2022-12-07T10:16:03;3.30;;;2.50;;
58896;SDS011;44677;52.378;10.400;2022-12-07T10:23:37;4.90;;;2.40;;
58896;SDS011;44677;52.378;10.400;2022-12-07T10:26:26;4.30;;;2.00;;
58896;SDS011;44677;52.378;10.400;2022-12-07T10:28:54;4.30;;;2.20;;
58896;SDS011;44677;52.378;10.400;2022-12-07T10:31:22;4.60;;;2.30;;
58896;SDS011;44677;52.378;10.400;2022-12-07T10:33:55;5.00;;;2.20;;
58896;SDS011;44677;52.378;10.400;2022-12-07T10:39:02;5.40;;;2.00;;
58896;SDS011;44677;52.378;10.400;2022-12-07T10:41:55;3.80;;;1.90;;
58896;SDS011;44677;52.378;10.400;2022-12-07T10:44:29;5.50;;;1.90;;
58896;SDS011;44677;52.378;10.400;2022-12-07T11:01:00;3.40;;;2.20;;
58896;SDS011;44677;52.378;10.400;2022-12-07T11:06:19;4.00;;;1.60;;
58896;SDS011;44677;52.378;10.400;2022-12-07T11:11:52;2.90;;;1.70;;
58896;SDS011;44677;52.378;10.400;2022-12-07T11:20:20;6.60;;;2.10;;
58896;SDS011;44677;52.378;10.400;2022-12-07T11:31:24;4.00;;;1.80;;
58896;SDS011;44677;52.378;10.400;2022-12-07T11:34:19;2.90;;;1.40;;
58896;SDS011;44677;52.378;10.400;2022-12-07T11:36:47;2.10;;;1.80;;
58896;SDS011;44677;52.378;10.400;2022-12-07T11:39:20;3.90;;;1.60;;
58896;SDS011;44677;52.378;10.400;2022-12-07T11:42:00;2.10;;;1.60;;
58896;SDS011;44677;52.378;10.400;2022-12-07T11:44:34;3.00;;;1.40;;
58896;SDS011;44677;52.378;10.400;2022-12-07T11:50:54;5.30;;;1.80;;
58896;SDS011;44677;52.378;10.400;2022-12-07T12:06:35;4.60;;;1.50;;
58896;SDS011;44677;52.378;10.400;2022-12-07T12:14:32;2.20;;;1.30;;
58896;SDS011;44677;52.378;10.400;2022-12-07T12:17:10;2.50;;;1.40;;
58896;SDS011;44677;52.378;10.400;2022-12-07T12:22:35;4.40;;;1.60;;
58896;SDS011;44677;52.378;10.400;2022-12-07T12:25:19;2.20;;;1.20;;
58896;SDS011;44677;52.378;10.400;2022-12-07T12:28:23;1.30;;;1.30;;
58896;SDS011;44677;52.378;10.400;2022-12-07T12:31:28;2.90;;;1.40;;
58896;SDS011;44677;52.378;10.400;2022-12-07T12:34:00;1.80;;;1.20;;
58896;SDS011;44677;52.378;10.400;2022-12-07T12:39:12;3.90;;;1.40;;
58896;SDS011;44677;52.378;10.400;2022-12-07T12:57:31;2.90;;;1.30;;
58896;SDS011;44677;52.378;10.400;2022-12-07T12:59:58;2.40;;;1.10;;
58896;SDS011;44677;52.378;10.400;2022-12-07T13:11:03;4.60;;;1.40;;
58896;SDS011;44677;52.378;10.400;2022-12-07T13:23:20;3.60;;;1.60;;
58896;SDS011;44677;52.378;10.400;2022-12-07T13:25:49;2.30;;;1.60;;
58896;SDS011;44677;52.378;10.400;2022-12-07T13:28:25;2.30;;;1.60;;
58896;SDS011;44677;52.378;10.400;2022-12-07T13:31:00;4.10;;;1.40;;
58896;SDS011;44677;52.378;10.400;2022-12-07T13:33:30;2.10;;;1.90;;
58896;SDS011;44677;52.378;10.400;2022-12-07T13:35:56;3.60;;;1.80;;
58896;SDS011;44677;52.378;10.400;2022-12-07T13:43:52;3.40;;;1.80;;
58896;SDS011;44677;52.378;10.400;2022-12-07T13:46:25;4.00;;;1.70;;
58896;SDS011;44677;52.378;10.400;2022-12-07T13:48:55;5.00;;;1.80;;
58896;SDS011;44677;52.378;10.400;2022-12-07T13:51:22;6.60;;;3.20;;
58896;SDS011;44677;52.378;10.400;2022-12-07T13:53:55;7.40;;;2.60;;
58896;SDS011;44677;52.378;10.400;2022-12-07T13:56:32;3.90;;;2.20;;
58896;SDS011;44677;52.378;10.400;2022-12-07T13:58:59;2.90;;;2.20;;
58896;SDS011;44677;52.378;10.400;2022-12-07T14:01:25;4.40;;;2.50;;
58896;SDS011;44677;52.378;10.400;2022-12-07T14:03:51;5.70;;;2.60;;
58896;SDS011;44677;52.378;10.400;2022-12-07T14:06:19;6.40;;;2.50;;
58896;SDS011;44677;52.378;10.400;2022-12-07T14:08:50;4.00;;;2.50;;
58896;SDS011;44677;52.378;10.400;2022-12-07T14:11:17;4.20;;;3.00;;
58896;SDS011;44677;52.378;10.400;2022-12-07T14:13:55;3.90;;;3.10;;
58896;SDS011;44677;52.378;10.400;2022-12-07T14:16:24;3.80;;;2.90;;
58896;SDS011;44677;52.378;10.400;2022-12-07T14:18:55;8.50;;;3.10;;
58896;SDS011;44677;52.378;10.400;2022-12-07T14:21:23;6.50;;;3.40;;
58896;SDS011;44677;52.378;10.400;2022-12-07T14:26:27;7.10;;;2.90;;
58896;SDS011;44677;52.378;10.400;2022-12-07T14:28:53;4.80;;;2.80;;
58896;SDS011;44677;52.378;10.400;2022-12-07T14:31:53;7.20;;;2.40;;
58896;SDS011;44677;52.378;10.400;2022-12-07T14:34:20;4.30;;;2.40;;
58896;SDS011;44677;52.378;10.400;2022-12-07T14:36:46;6.70;;;2.70;;
58896;SDS011;44677;52.378;10.400;2022-12-07T14:39:11;8.00;;;2.60;;
58896;SDS011;44677;52.378;10.400;2022-12-07T14:41:37;6.30;;;2.40;;
58896;SDS011;44677;52.378;10.400;2022-12-07T14:44:18;5.40;;;2.60;;
58896;SDS011;44677;52.378;10.400;2022-12-07T14:46:45;7.10;;;2.60;;
58896;SDS011;44677;52.378;10.400;2022-12-07T14:49:11;5.00;;;2.90;;
58896;SDS011;44677;52.378;10.400;2022-12-07T14:51:37;7.00;;;2.80;;
58896;SDS011;44677;52.378;10.400;2022-12-07T14:56:28;5.90;;;2.70;;
58896;SDS011;44677;52.378;10.400;2022-12-07T14:58:54;5.00;;;2.80;;
58896;SDS011;44677;52.378;10.400;2022-12-07T15:01:19;6.80;;;2.70;;
58896;SDS011;44677;52.378;10.400;2022-12-07T15:03:44;3.30;;;2.30;;
58896;SDS011;44677;52.378;10.400;2022-12-07T15:06:12;4.80;;;2.80;;
58896;SDS011;44677;52.378;10.400;2022-12-07T15:08:39;5.50;;;3.30;;
58896;SDS011;44677;52.378;10.400;2022-12-07T15:11:04;6.00;;;3.60;;
58896;SDS011;44677;52.378;10.400;2022-12-07T15:13:30;5.30;;;3.30;;
58896;SDS011;44677;52.378;10.400;2022-12-07T15:16:16;5.40;;;3.20;;
58896;SDS011;44677;52.378;10.400;2022-12-07T15:18:44;10.90;;;4.50;;
58896;SDS011;44677;52.378;10.400;2022-12-07T15:21:13;6.30;;;3.20;;
58896;SDS011;44677;52.378;10.400;2022-12-07T15:23:40;8.60;;;3.40;;
58896;SDS011;44677;52.378;10.400;2022-12-07T15:26:05;6.90;;;3.30;;
58896;SDS011;44677;52.378;10.400;2022-12-07T15:28:30;9.30;;;3.40;;
58896;SDS011;44677;52.378;10.400;2022-12-07T15:30:56;6.10;;;2.90;;
58896;SDS011;44677;52.378;10.400;2022-12-07T15:33:21;8.60;;;3.00;;
58896;SDS011;44677;52.378;10.400;2022-12-07T15:35:47;4.70;;;2.90;;
58896;SDS011;44677;52.378;10.400;2022-12-07T15:38:12;10.10;;;3.00;;
58896;SDS011;44677;52.378;10.400;2022-12-07T15:40:38;7.10;;;2.70;;
58896;SDS011;44677;52.378;10.400;2022-12-07T15:43:03;5.20;;;2.90;;
58896;SDS011;44677;52.378;10.400;2022-12-07T15:45:29;5.10;;;2.40;;
58896;SDS011;44677;52.378;10.400;2022-12-07T15:47:54;2.80;;;1.20;;
58896;SDS011;44677;52.378;10.400;2022-12-07T15:50:20;3.00;;;1.70;;
58896;SDS011;44677;52.378;10.400;2022-12-07T15:52:46;1.90;;;0.70;;
58896;SDS011;44677;52.378;10.400;2022-12-07T15:55:12;3.10;;;1.00;;
58896;SDS011;44677;52.378;10.400;2022-12-07T15:57:37;5.90;;;1.00;;
58896;SDS011;44677;52.378;10.400;2022-12-07T16:00:04;2.60;;;1.20;;
58896;SDS011;44677;52.378;10.400;2022-12-07T16:02:30;2.20;;;1.00;;
58896;SDS011;44677;52.378;10.400;2022-12-07T16:04:56;4.90;;;1.20;;
58896;SDS011;44677;52.378;10.400;2022-12-07T16:07:21;3.60;;;1.20;;
58896;SDS011;44677;52.378;10.400;2022-12-07T16:09:47;3.70;;;1.00;;
58896;SDS011;44677;52.378;10.400;2022-12-07T16:12:15;1.10;;;0.90;;
58896;SDS011;44677;52.378;10.400;2022-12-07T16:14:40;2.40;;;0.90;;
58896;SDS011;44677;52.378;10.400;2022-12-07T16:17:07;5.20;;;0.80;;
58896;SDS011;44677;52.378;10.400;2022-12-07T16:19:33;1.50;;;0.60;;
58896;SDS011;44677;52.378;10.400;2022-12-07T16:21:59;1.60;;;0.60;;
58896;SDS011;44677;52.378;10.400;2022-12-07T16:24:25;1.30;;;0.70;;
58896;SDS011;44677;52.378;10.400;2022-12-07T16:26:51;1.70;;;0.90;;
58896;SDS011;44677;52.378;10.400;2022-12-07T16:29:18;2.50;;;1.00;;
58896;SDS011;44677;52.378;10.400;2022-12-07T16:31:44;1.40;;;1.00;;
58896;SDS011;44677;52.378;10.400;2022-12-07T16:34:10;0.80;;;0.60;;
58896;SDS011;44677;52.378;10.400;2022-12-07T16:36:35;0.70;;;0.70;;
58896;SDS011;44677;52.378;10.400;2022-12-07T16:39:01;1.70;;;0.90;;
58896;SDS011;44677;52.378;10.400;2022-12-07T16:41:27;0.80;;;0.80;;
58896;SDS011;44677;52.378;10.400;2022-12-07T16:43:53;3.50;;;1.00;;
58896;SDS011;44677;52.378;10.400;2022-12-07T16:46:19;2.20;;;0.90;;
58896;SDS011;44677;52.378;10.400;2022-12-07T16:48:44;1.50;;;1.30;;
58896;SDS011;44677;52.378;10.400;2022-12-07T16:51:12;3.60;;;1.50;;
58896;SDS011;44677;52.378;10.400;2022-12-07T16:53:39;3.10;;;1.50;;
58896;SDS011;44677;52.378;10.400;2022-12-07T16:56:12;3.00;;;1.00;;
58896;SDS011;44677;52.378;10.400;2022-12-07T16:58:40;4.60;;;1.70;;
58896;SDS011;44677;52.378;10.400;2022-12-07T17:01:17;2.60;;;1.50;;
58896;SDS011;44677;52.378;10.400;2022-12-07T17:03:49;2.30;;;1.10;;
58896;SDS011;44677;52.378;10.400;2022-12-07T17:06:21;3.30;;;1.50;;